Manila Express — VRCX7 — position and weather

sailwx.info

Track history (hours):
 
Tides and Currents Weather Stations Pressure Air Temp Water Temp Dewpoint Dewpoint Depression Visibility Wind Speed Wind Dir Waves Ship Positions

Manila Express

Last reported at 2016-Jun-22 06:00 UTC. Time now 2016-Jun-25 23:15 UTC.
Position N 08°24' E 081°42'.

Length 260 m; draft 12.3 m.

Type: Ship (hazmat cat A). MMSI: 477830800.

Wind from 270 at 8 knots

Waves 1.5 meters (5 feet), 3 second period

Barometer 1007.2 mb
Air temperature 30.2 ° C
Visibility: greater than 5.4 NM
Dewpoint 26.2 ° C

Date/timePositionNaut miles runAvg speedWind from/ knotsBaromVisibWave heightAir tempDewpointWater temp
2016-Jun-22 06:00N 08°24' E 081°42'   270 / 81007.2 5.4 1.530.226.2
2016-Jun-14 09:08N 02°02' E 102°11'1110.7
2016-Jun-14 08:06N 01°56' E 102°19'610.4
2016-Jun-14 07:33N 01°53' E 102°25'2211.3
2016-Jun-14 05:33N 01°44' E 102°45'7011.6
2016-Jun-13 23:30N 01°09' E 103°46'8 8.4
2016-Jun-13 22:33N 01°14' E 103°53'3 2.7
2016-Jun-13 21:33N 01°16' E 103°51'0 0.0
2016-Jun-13 20:33N 01°16' E 103°51'0 0.0
2016-Jun-13 19:33N 01°16' E 103°51'0 0.0
2016-Jun-13 18:33N 01°16' E 103°51'0 0.0
2016-Jun-13 17:33N 01°16' E 103°51'0 0.0
2016-Jun-13 16:33N 01°16' E 103°51'0 0.0
2016-Jun-13 15:32N 01°16' E 103°51'0 0.0
2016-Jun-13 14:32N 01°16' E 103°51'0 0.0
2016-Jun-13 13:32N 01°16' E 103°51'0 0.0
2016-Jun-13 12:32N 01°16' E 103°51'0 0.0
2016-Jun-13 11:32N 01°16' E 103°51'0 0.0
2016-Jun-13 10:32N 01°16' E 103°51'0 0.0
2016-Jun-13 09:32N 01°16' E 103°51'0 0.0
2016-Jun-13 08:32N 01°16' E 103°51'0 0.0
2016-Jun-13 07:32N 01°16' E 103°51'0 0.0
2016-Jun-13 06:32N 01°16' E 103°51'0 0.0
2016-Jun-13 05:32N 01°16' E 103°51'0 0.0
2016-Jun-13 04:32N 01°16' E 103°51'0 0.0
2016-Jun-13 03:32N 01°16' E 103°51'0 0.0
2016-Jun-13 02:32N 01°16' E 103°51'0 0.0
2016-Jun-13 01:32N 01°16' E 103°51'0 0.0
2016-Jun-13 00:32N 01°16' E 103°51'0 0.0
2016-Jun-12 23:32N 01°16' E 103°51'0 0.0
2016-Jun-12 22:32N 01°16' E 103°51'2 2.5
2016-Jun-12 21:33N 01°14' E 103°53'9 8.9
2016-Jun-12 20:33N 01°15' E 104°02'  
Track history (hours):
 
Tides and Currents Weather Stations Pressure Air Temp Water Temp Dewpoint Dewpoint Depression Visibility Wind Speed Wind Dir Waves Ship Positions

Manila Express

Last reported at 2016-Jun-22 06:00 UTC. Time now 2016-Jun-25 23:15 UTC.
Position N 08°24' E 081°42'.

Length 260 m; draft 12.3 m.

Type: Ship (hazmat cat A). MMSI: 477830800.

Wind from 270 at 8 knots

Waves 1.5 meters (5 feet), 3 second period

Barometer 1007.2 mb
Air temperature 30.2 ° C
Visibility: greater than 5.4 NM
Dewpoint 26.2 ° C

Date/timePositionNaut miles runAvg speedWind from/ knotsBaromVisibWave heightAir tempDewpointWater temp
2016-Jun-22 06:00N 08°24' E 081°42'   270 / 81007.2 5.4 1.530.226.2
2016-Jun-14 09:08N 02°02' E 102°11'1110.7
2016-Jun-14 08:06N 01°56' E 102°19'610.4
2016-Jun-14 07:33N 01°53' E 102°25'2211.3
2016-Jun-14 05:33N 01°44' E 102°45'7011.6
2016-Jun-13 23:30N 01°09' E 103°46'8 8.4
2016-Jun-13 22:33N 01°14' E 103°53'3 2.7
2016-Jun-13 21:33N 01°16' E 103°51'0 0.0
2016-Jun-13 20:33N 01°16' E 103°51'0 0.0
2016-Jun-13 19:33N 01°16' E 103°51'0 0.0
2016-Jun-13 18:33N 01°16' E 103°51'0 0.0
2016-Jun-13 17:33N 01°16' E 103°51'0 0.0
2016-Jun-13 16:33N 01°16' E 103°51'0 0.0
2016-Jun-13 15:32N 01°16' E 103°51'0 0.0
2016-Jun-13 14:32N 01°16' E 103°51'0 0.0
2016-Jun-13 13:32N 01°16' E 103°51'0 0.0
2016-Jun-13 12:32N 01°16' E 103°51'0 0.0
2016-Jun-13 11:32N 01°16' E 103°51'0 0.0
2016-Jun-13 10:32N 01°16' E 103°51'0 0.0
2016-Jun-13 09:32N 01°16' E 103°51'0 0.0
2016-Jun-13 08:32N 01°16' E 103°51'0 0.0
2016-Jun-13 07:32N 01°16' E 103°51'0 0.0
2016-Jun-13 06:32N 01°16' E 103°51'0 0.0
2016-Jun-13 05:32N 01°16' E 103°51'0 0.0
2016-Jun-13 04:32N 01°16' E 103°51'0 0.0
2016-Jun-13 03:32N 01°16' E 103°51'0 0.0
2016-Jun-13 02:32N 01°16' E 103°51'0 0.0
2016-Jun-13 01:32N 01°16' E 103°51'0 0.0
2016-Jun-13 00:32N 01°16' E 103°51'0 0.0
2016-Jun-12 23:32N 01°16' E 103°51'0 0.0
2016-Jun-12 22:32N 01°16' E 103°51'2 2.5
2016-Jun-12 21:33N 01°14' E 103°53'9 8.9
2016-Jun-12 20:33N 01°15' E 104°02'  

Dump ship's entire track history